Buckle Incthe (BKE) Latest Bloomsberg Price


Mffais Ranking #2161 Overall / #23 Industry
Industry: Specialty Apparel Stores

Number of Companies: 116 (Ranking #1463 Overall/#19 Industry)
Inflow: $ 16,573 (K) (Ranking #1817 Overall/#21 Industry)
Outflow: $ -44,942 (K)
Mffais Flow: $ -28,368 (K) (Ranking #2161 Overall/#23 Industry)


Receive a FREE weekly executive review of stocks moving into the top 10, taking the top industy spot or moving up within their industry. Sent directly to your Inbox every Saturday. Sign up today and get last week's review immediately sent to you.

We value and respect your privacy. Please read our Terms and Conditions which states our firm commitment to your privacy. Your email address will not be shared with a third party, nor will it be sold or used for purposes other than subscription for the weekly review.

Owner CPOR Shares Action Qty Chg Invested (K) Total Current Value (K)
Crawford Investment Counsel Inc 2016-09-30 504,443 Added More 121,834 $ 3,251 $ 13,463
Advisors Asset Management Inc 2016-09-30 810,876 Added More 79,768 $ 2,129 $ 21,642
Hutchin Hill Capital Lp 2016-09-30 53,100 New Holding 53,100 $ 1,417 $ 1,417
Peak6 Investments L P 2016-09-30 72,415 Added More 39,135 $ 1,044 $ 1,932
Palisade Capital Management Llc Nj 2016-09-30 472,423 Added More 37,837 $ 1,009 $ 12,608
Capstone Investment Advisors Llc 2016-09-30 24,055 New Holding 24,055 $ 642 $ 642
Stevens Capital Management Lp 2016-09-30 22,672 New Holding 22,672 $ 605 $ 605
Nisa Investment Advisors Llc 2016-09-30 38,050 Added More 22,050 $ 588 $ 1,015
Icon Advisers Inc Co 2016-09-30 42,000 Added More 20,800 $ 555 $ 1,120
United Services Automobile Association 2016-09-30 19,060 New Holding 19,060 $ 508 $ 508
Legal General Group Plc 2016-09-30 24,613 Added More 19,032 $ 507 $ 656
Ahl Partners Llp 2016-09-30 29,072 Added More 18,814 $ 502 $ 775
Lucus Advisors Llc 2016-09-30 16,550 New Holding 16,550 $ 441 $ 441
Sg Americas Securities Llc 2016-09-30 15,494 New Holding 15,494 $ 413 $ 413
Rhumbline Advisers 2016-09-30 77,364 Added More 14,335 $ 382 $ 2,064
Squarepoint Ops Llc 2016-09-30 9,720 New Holding 9,720 $ 259 $ 259
Kcg Holdings Inc 2016-09-30 9,392 New Holding 9,392 $ 250 $ 250
Zebra Capital Management Llc 2016-09-30 71,058 Added More 9,002 $ 240 $ 1,896
Trexquant Investment Lp 2016-09-30 8,960 New Holding 8,960 $ 239 $ 239
Raymond James Associates 2016-09-30 24,940 Added More 8,689 $ 231 $ 665
Parametric Portfolio Associates Llc 2016-09-30 165,112 Added More 8,370 $ 223 $ 4,406
Cantab Capital Partners Llp 2016-09-30 17,315 Added More 7,920 $ 211 $ 462
Aperio Group Llc 2016-09-30 19,817 Added More 6,296 $ 168 $ 528
Baird Financial Group Inc 2016-09-30 75,377 Added More 5,575 $ 148 $ 2,011
Amp Capital Investors Ltd 2016-09-30 39,876 Added More 4,400 $ 117 $ 1,064
Blackrock Investment Management Llc 2016-09-30 126,457 Added More 2,253 $ 60 $ 3,375
Advisory Services Network Llc 2016-09-30 2,052 New Holding 2,052 $ 54 $ 54
Nn Investment Partners Holdings N V 2016-09-30 28,330 Added More 2,050 $ 54 $ 756
Northern Trust Corp 2016-09-30 361,297 Added More 1,756 $ 46 $ 9,643
Pacad Investment Ltd 2016-09-30 4,649 Added More 1,749 $ 46 $ 124
Envestnet Asset Management Inc 2016-09-30 1,016 New Holding 1,016 $ 27 $ 27
Independent Portfolio Consultants Inc 2016-09-30 2,595 Added More 910 $ 24 $ 69
Pnc Financial Services Group Inc 2016-09-30 13,173 Added More 836 $ 22 $ 351
Thrivent Financial For Lutherans 2016-09-30 14,250 Added More 760 $ 20 $ 380
Capital Investment Counsel Inc 2016-09-30 10,150 Added More 700 $ 18 $ 270
California State Teachers Retirement System 2016-09-30 60,634 Added More 600 $ 16 $ 1,618
Cable Hill Partners Llc 2016-09-30 369 New Holding 369 $ 9 $ 9
Blackrock Inc 2016-09-30 7,978 Added More 330 $ 8 $ 212
Ladenburg Thalmann Financial Services Inc 2016-09-30 4,406 Added More 300 $ 8 $ 117
Cutler Group Lp 2016-09-30 1,400 Added More 300 $ 8 $ 37
Mason Street Advisors Llc 2016-09-30 5,744 Added More 271 $ 7 $ 153
Zurcher Kantonalbank Zurich Cantonalbank 2016-09-30 929 Added More 227 $ 6 $ 24
Clinton Group Inc 2016-09-30 12,386 Added More 221 $ 5 $ 330
Jensen Investment Management Inc 2016-09-30 17,450 Added More 220 $ 5 $ 465
Bronfman E L Rothschild L P 2016-09-30 962 Added More 213 $ 5 $ 25
Comerica Bank 2016-09-30 28,128 Added More 209 $ 5 $ 750
Oakworth Capital Inc 2016-09-30 168 New Holding 168 $ 4 $ 4
Us Bancorp De 2016-09-30 14,083 Added More 114 $ 3 $ 375
Horizon Kinetics Llc 2016-09-30 16,885 Added More 107 $ 2 $ 450
Acrospire Investment Management Llc 2016-09-30 100 New Holding 100 $ 2 $ 2
Ifp Advisors Inc 2016-09-30 306 Added More 95 $ 2 $ 8
Farmers Merchants Investments Inc 2016-09-30 955 Added More 93 $ 2 $ 25
Sei Investments Co 2016-09-30 63 New Holding 63 $ 1 $ 1
Denali Advisors Llc 2016-09-30 122 Added More 31 $ 0 $ 3
Quadrant Capital Group Llc 2016-09-30 48 No Change 0 $ 0 $ 1
Fifth Third Bancorp 2016-09-30 843 No Change 0 $ 0 $ 22
Midas Management Corp 2016-09-30 12,650 No Change 0 $ 0 $ 337
New York State Teachers Retirement System 2016-09-30 49,701 No Change 0 $ 0 $ 1,326
Teachers Retirement System Of The State Of Kentucky 2016-09-30 9,950 No Change 0 $ 0 $ 265
Hsbc Holdings Plc 2016-09-30 8,585 No Change 0 $ 0 $ 229
Teachers Advisors Inc 2016-09-30 45,149 No Change 0 $ 0 $ 1,205
Dreman Value Management L L C 2016-09-30 5,485 No Change 0 $ 0 $ 146
Clark Estates Inc Ny 2016-09-30 73,100 No Change 0 $ 0 $ 1,951
Nationwide Fund Advisors 2016-09-30 18,560 No Change 0 $ 0 $ 495
Zurich Insurance Group Ltd Fi 2016-09-30 26,200 No Change 0 $ 0 $ 699
Century Capital Management Llc 2016-09-30 58,716 No Change 0 $ 0 $ 1,567
Adams Asset Advisors Llc 2016-09-30 24,439 No Change 0 $ 0 $ 652
Public Sector Pension Investment Board 2016-09-30 19,482 No Change 0 $ 0 $ 519
Ls Investment Advisors Llc 2016-09-30 996 No Change 0 $ 0 $ 26
Botty Investors Llc 2016-09-30 10,415 No Change 0 $ 0 $ 277
Sprott Inc 2016-09-30 170,000 No Change 0 $ 0 $ 4,537
South Dakota Investment Council 2016-09-30 81,800 No Change 0 $ 0 $ 2,183
Swiss National Bank 2016-09-30 46,700 No Change 0 $ 0 $ 1,246
State Of Tennessee Treasury Department 2016-09-30 22,429 No Change 0 $ 0 $ 598
Summit Street Capital Management Llc 2016-09-30 111,249 No Change 0 $ 0 $ 2,969
Euclidean Technologies Management Llc 2016-09-30 67,834 No Change 0 $ 0 $ 1,810
Physicians Financial Services Inc 2016-09-30 1,701 No Change 0 $ 0 $ 45
Pinebridge Investments L P 2016-09-30 3,547 Sold Some -3 $ -0 $ 94
American International Group Inc 2016-09-30 21,168 Sold Some -30 $ -0 $ 564
Us Financial Advisors Llc 2016-06-30 0 Sold All -42 $ -1 $ 0
Advisor Group Inc 2016-09-30 132 Sold Some -62 $ -1 $ 3
Arizona State Retirement System 2016-09-30 14,479 Sold Some -100 $ -2 $ 386
Livingston Group Asset Management Co Operating As Southport 2016-09-30 0 Sold All -100 $ -2 $ 0
Atlantic Trust Group Llc 2016-09-30 49,602 Sold Some -105 $ -2 $ 1,323
Freestone Capital Holdings Llc 2016-09-30 22,189 Sold Some -124 $ -3 $ 592
Capstone Asset Management Co 2016-09-30 8,911 Sold Some -145 $ -3 $ 237
Texas Permanent School Fund 2016-09-30 21,254 Sold Some -153 $ -4 $ 567
Oppenheimer Co Inc 2016-09-30 12,150 Sold Some -200 $ -5 $ 324
Dimensional Fund Advisors Lp 2016-09-30 532,627 Sold Some -809 $ -21 $ 14,215
Pittenger Anderson Inc 2016-09-30 2,312 Sold Some -888 $ -23 $ 61
Creative Planning 2016-09-30 17,832 Sold Some -2,050 $ -54 $ 475
Alambic Investment Management L P 2016-09-30 16,200 Sold Some -2,300 $ -61 $ 432
Axa 2016-09-30 0 Sold All -3,600 $ -96 $ 0
Stifel Financial Corp 2016-09-30 8,451 Sold Some -3,935 $ -105 $ 225
Teacher Retirement System Of Texas 2016-09-30 0 Sold All -4,069 $ -108 $ 0
Cubist Systematic Strategies Llc 2016-09-30 648 Sold Some -7,053 $ -188 $ 17
Guggenheim Capital Llc 2016-09-30 57,536 Sold Some -8,087 $ -215 $ 1,535
Kennedy Capital Management Inc 2016-09-30 140,931 Sold Some -8,165 $ -217 $ 3,761
Profund Advisors Llc 2016-09-30 0 Sold All -9,082 $ -242 $ 0
Morgan Dempsey Capital Management Llc 2016-09-30 56,947 Sold Some -9,437 $ -251 $ 1,519
Hays Advisory Llc 2016-09-30 102,438 Sold Some -10,934 $ -291 $ 2,734
Walleye Trading Llc 2016-09-30 0 Sold All -16,000 $ -427 $ 0
Spot Trading L L C 2016-09-30 0 Sold All -18,773 $ -501 $ 0
Cipher Capital Lp 2016-09-30 0 Sold All -19,463 $ -519 $ 0
Hamlin Capital Management Llc 2016-09-30 1,700,820 Sold Some -34,560 $ -922 $ 45,394
Shufro Rose Co Llc 2016-09-30 198,165 Sold Some -35,005 $ -934 $ 5,289
Gam Holding Ag 2016-09-30 35,436 Sold Some -35,436 $ -945 $ 945
Stadium Capital Management Llc 2016-09-30 560,736 Sold Some -35,729 $ -953 $ 14,966
New York State Common Retirement Fund 2016-09-30 54,389 Sold Some -40,669 $ -1,085 $ 1,451
Fort L P 2016-09-30 423,638 Sold Some -50,865 $ -1,357 $ 11,306
Fiera Capital Corp 2016-09-30 0 Sold All -73,700 $ -1,967 $ 0
Lombardia Capital Partners Llc 2016-09-30 201,757 Sold Some -90,273 $ -2,409 $ 5,384
Great Lakes Advisors Llc 2016-09-30 0 Sold All -140,529 $ -3,750 $ 0
First Manhattan Co 2016-09-30 43,630 Sold Some -142,783 $ -3,810 $ 1,164
Gotham Asset Management Llc 2016-09-30 193,088 Sold Some -165,317 $ -4,412 $ 5,153
Royce Associates Lp 2016-09-30 3,474,775 Sold Some -713,306 $ -19,038 $ 92,741